1899 Hurricane NOT_NAMED (1899246N13322)


IBTrACS version v04r00. Visit IBTrACS website for data access.
Please direct all questions to the IBTrACS Q and A forum

Storm track - Intensity - Wind Radii - Intensity Data - Source Data - All data

Summary Information

Storm ID 1899246N13322
Start Sep 3 00Z
Landfall Sep 15 03Z
Max Intensity 105 kt (Sep 9 06Z), 939 mb (Sep 13 06Z)
End Sep 15 18Z
ATCF IDs AL051899
Track status Best track data.

Storm track plot

Map of storm track

Intensity plots

Map of storm track

Radial wind information

No radial wind information for this storm


Position and Intensity Table

BASIN ISO_TIME_________ NATURE LAT LON WMO WIND WMO PRES USA WIND USA PRES
degrees north degrees east kts mb kts mb
NA 1899-09-03 00:00:00 TS 13.20 -38.40 35 35
NA 03:00:00 TS 13.19 -39.31 35
NA 06:00:00 TS 13.20 -40.20 35 35
NA 09:00:00 TS 13.27 -41.09 35
NA 12:00:00 TS 13.40 -42.00 35 35
NA 15:00:00 TS 13.58 -43.00 35
NA 18:00:00 TS 13.80 -44.00 35 35
NA 21:00:00 TS 14.01 -44.94 35
NA 1899-09-04 00:00:00 TS 14.20 -45.80 35 35
NA 03:00:00 TS 14.36 -46.61 35
NA 06:00:00 TS 14.50 -47.30 35 35
NA 09:00:00 TS 14.61 -47.86 37
NA 12:00:00 TS 14.70 -48.30 40 40
NA 15:00:00 TS 14.81 -48.67 42
NA 18:00:00 TS 14.90 -49.00 45 45
NA 21:00:00 TS 14.96 -49.35 47
NA 1899-09-05 00:00:00 TS 15.00 -49.70 50 50
NA 03:00:00 TS 15.04 -50.05 52
NA 06:00:00 TS 15.10 -50.40 55 55
NA 09:00:00 TS 15.19 -50.74 57
NA 12:00:00 TS 15.30 -51.10 60 60
NA 15:00:00 TS 15.39 -51.49 62
NA 18:00:00 TS 15.50 -51.90 65 65
NA 21:00:00 TS 15.65 -52.31 67
NA 1899-09-06 00:00:00 TS 15.80 -52.70 70 70
NA 03:00:00 TS 15.91 -53.05 70
NA 06:00:00 TS 16.00 -53.40 70 70
NA 09:00:00 TS 16.10 -53.80 70
NA 12:00:00 TS 16.20 -54.20 70 70
NA 15:00:00 TS 16.31 -54.57 70
NA 18:00:00 TS 16.40 -54.90 70 70
NA 21:00:00 TS 16.46 -55.16 70
NA 1899-09-07 00:00:00 TS 16.50 -55.40 70 70
NA 03:00:00 TS 16.54 -55.68 72
NA 06:00:00 TS 16.60 -56.00 75 75
NA 09:00:00 TS 16.69 -56.38 77
NA 12:00:00 TS 16.80 -56.80 80 80
NA 15:00:00 TS 16.90 -57.24 82
NA 18:00:00 TS 17.00 -57.70 85 85
NA 21:00:00 TS 17.11 -58.15 85
NA 1899-09-08 00:00:00 TS 17.20 -58.60 85 85
NA 03:00:00 TS 17.25 -59.04 87
NA 06:00:00 TS 17.30 -59.50 90 90
NA 09:00:00 TS 17.37 -59.98 92
NA 12:00:00 TS 17.50 -60.50 95 95
NA 15:00:00 TS 17.74 -61.11 97
NA 18:00:00 TS 18.00 -61.70 100 100
NA 21:00:00 TS 18.20 -62.17 100
NA 1899-09-09 00:00:00 TS 18.40 -62.60 100 100
NA 03:00:00 TS 18.63 -63.10 102
NA 06:00:00 TS 18.90 -63.60 105 105
NA 09:00:00 TS 19.20 -64.04 105
NA 12:00:00 TS 19.50 -64.50 105 105
NA 15:00:00 TS 19.76 -65.09 105
NA 18:00:00 TS 20.00 -65.70 105 105
NA 21:00:00 TS 20.24 -66.27 105
NA 1899-09-10 00:00:00 TS 20.50 -66.80 105 105
NA 03:00:00 TS 20.79 -67.26 105
NA 06:00:00 TS 21.10 -67.70 105 105
NA 09:00:00 TS 21.39 -68.22 105
NA 12:00:00 TS 21.70 -68.70 105 105
NA 15:00:00 TS 22.09 -69.11 105
NA 18:00:00 TS 22.50 -69.40 105 105
NA 21:00:00 TS 22.83 -69.54 105
NA 1899-09-11 00:00:00 TS 23.20 -69.60 105 105
NA 03:00:00 TS 23.69 -69.70 105
NA 06:00:00 TS 24.20 -69.80 105 105
NA 09:00:00 TS 24.61 -69.93 105
NA 12:00:00 TS 25.00 -70.00 105 105
NA 15:00:00 TS 25.44 -69.93 105
NA 18:00:00 TS 25.90 -69.80 105 105
NA 21:00:00 TS 26.40 -69.73 105
NA 1899-09-12 00:00:00 TS 26.90 -69.60 105 105
NA 03:00:00 TS 27.36 -69.34 105
NA 06:00:00 TS 27.80 -69.00 105 105
NA 09:00:00 TS 28.23 -68.68 105
NA 12:00:00 TS 28.70 -68.30 105 105
NA 15:00:00 TS 29.23 -67.84 105
NA 18:00:00 TS 29.80 -67.30 105 105
NA 21:00:00 TS 30.39 -66.68 105
NA 1899-09-13 00:00:00 TS 31.00 -66.00 105 105
NA 03:00:00 TS 31.59 -65.31 105
NA 06:00:00 TS 32.20 -64.60 105 939 105 939
NA 09:00:00 TS 32.83 -63.89 105
NA 12:00:00 TS 33.50 -63.20 105 105
NA 15:00:00 TS 34.18 -62.55 102
NA 18:00:00 TS 34.90 -61.90 100 100
NA 21:00:00 TS 35.65 -61.23 97
NA 1899-09-14 00:00:00 TS 36.50 -60.50 95 95
NA 03:00:00 TS 37.47 -59.68 92
NA 06:00:00 TS 38.50 -58.80 90 90
NA 09:00:00 TS 39.45 -57.91 87
NA 12:00:00 TS 40.50 -57.00 85 85
NA 15:00:00 TS 41.75 -56.03 82
NA 18:00:00 TS 43.10 -55.10 80 80
NA 21:00:00 TS 44.41 -54.23 77
NA 1899-09-15 00:00:00 TS 45.80 -53.50 75 75
NA 03:00:00 TS 47.32 -52.88 67
NA 06:00:00 ET 48.90 -52.50 60 60
NA 09:00:00 ET 50.46 -52.38 55
NA 12:00:00 ET 52.00 -52.50 50 50
NA 15:00:00 ET 53.51 -52.72 45
NA 18:00:00 ET 55.00 -53.00 40 40

Source Information

Agency Information
USA hurdat2-1851-2018-051019.txt:Line=9428:UNNAMED
TOKYO
CMA
HKO
NEWDELHI
REUNION
BOM
NADI
WELLINGTON
DS824
TD9636
TD9635
NEUMANN
MLC

All available IBTrACS Data

SEASON BASIN SUBBASIN ISO_TIME_________ NATURE LAT LON WMO WIND WMO PRES WMO AGENCY DIST2LAND LANDFALL IFLAG USA AGENCY USA ATCF_ID USA LAT USA LON USA STATUS USA WIND USA PRES USA SSHS STORM SPEED STORM DIR
Year degrees north degrees east kts mb km km degrees north degrees east kts mb 1 kts degrees
1899 NA NA 1899-09-03 00:00:00 TS 13.20 -38.40 35 hurdat_atl 1732 1652 O_____________ hurdat_atl AL051899 13.20 -38.40 TS 35 0 18 269
1899 NA NA 03:00:00 TS 13.19 -39.31 1652 1575 P_____________ AL051899 13.19 -39.31 TS 35 0 18 270
1899 NA NA 06:00:00 TS 13.20 -40.20 35 hurdat_atl 1575 1515 O_____________ hurdat_atl AL051899 13.20 -40.20 TS 35 0 17 273
1899 NA NA 09:00:00 TS 13.27 -41.09 1507 1450 P_____________ AL051899 13.27 -41.09 TS 35 0 18 277
1899 NA NA 12:00:00 TS 13.40 -42.00 35 hurdat_atl 1443 1390 O_____________ hurdat_atl AL051899 13.40 -42.00 TS 35 0 19 280
1899 NA NA 15:00:00 TS 13.58 -43.00 1384 1338 P_____________ AL051899 13.58 -43.00 TS 35 0 20 282
1899 NA NA 18:00:00 TS 13.80 -44.00 35 hurdat_atl 1332 1293 O_____________ hurdat_atl AL051899 13.80 -44.00 TS 35 0 19 283
1899 NA NA 21:00:00 TS 14.01 -44.94 1293 1253 P_____________ AL051899 14.01 -44.94 TS 35 0 18 283
1899 NA NA 1899-09-04 00:00:00 TS 14.20 -45.80 35 hurdat_atl 1253 1218 O_____________ hurdat_atl AL051899 14.20 -45.80 TS 35 0 17 282
1899 NA NA 03:00:00 TS 14.36 -46.61 1222 1192 P_____________ AL051899 14.36 -46.61 TS 35 0 15 282
1899 NA NA 06:00:00 TS 14.50 -47.30 35 hurdat_atl 1192 1176 O_____________ hurdat_atl AL051899 14.50 -47.30 TS 35 0 12 281
1899 NA NA 09:00:00 TS 14.61 -47.86 1171 1161 P_____________ AL051899 14.61 -47.86 TS 37 0 10 282
1899 NA NA 12:00:00 TS 14.70 -48.30 40 hurdat_atl 1162 1153 O_____________ hurdat_atl AL051899 14.70 -48.30 TS 40 0 8 284
1899 NA NA 15:00:00 TS 14.81 -48.67 1154 1150 P_____________ AL051899 14.81 -48.67 TS 42 0 7 286
1899 NA NA 18:00:00 TS 14.90 -49.00 45 hurdat_atl 1152 1141 O_____________ hurdat_atl AL051899 14.90 -49.00 TS 45 0 7 283
1899 NA NA 21:00:00 TS 14.96 -49.35 1146 1131 P_____________ AL051899 14.96 -49.35 TS 47 0 7 278
1899 NA NA 1899-09-05 00:00:00 TS 15.00 -49.70 50 hurdat_atl 1131 1117 O_____________ hurdat_atl AL051899 15.00 -49.70 TS 50 0 7 277
1899 NA NA 03:00:00 TS 15.04 -50.05 1113 1110 P_____________ AL051899 15.04 -50.05 TS 52 0 7 278
1899 NA NA 06:00:00 TS 15.10 -50.40 55 hurdat_atl 1110 1102 O_____________ hurdat_atl AL051899 15.10 -50.40 TS 55 0 7 283
1899 NA NA 09:00:00 TS 15.19 -50.74 1109 1102 P_____________ AL051899 15.19 -50.74 TS 57 0 7 286
1899 NA NA 12:00:00 TS 15.30 -51.10 60 hurdat_atl 1105 1099 O_____________ hurdat_atl AL051899 15.30 -51.10 TS 60 0 8 285
1899 NA NA 15:00:00 TS 15.39 -51.49 1104 1098 P_____________ AL051899 15.39 -51.49 TS 62 0 8 285
1899 NA NA 18:00:00 TS 15.50 -51.90 65 hurdat_atl 1104 1090 O_____________ hurdat_atl AL051899 15.50 -51.90 HU 65 1 8 288
1899 NA NA 21:00:00 TS 15.65 -52.31 1090 1064 P_____________ AL051899 15.65 -52.31 HU 67 1 8 291
1899 NA NA 1899-09-06 00:00:00 TS 15.80 -52.70 70 hurdat_atl 1064 1043 O_____________ hurdat_atl AL051899 15.80 -52.70 HU 70 1 8 290
1899 NA NA 03:00:00 TS 15.91 -53.05 1034 1014 P_____________ AL051899 15.91 -53.05 HU 70 1 7 287
1899 NA NA 06:00:00 TS 16.00 -53.40 70 hurdat_atl 1014 986 O_____________ hurdat_atl AL051899 16.00 -53.40 HU 70 1 7 285
1899 NA NA 09:00:00 TS 16.10 -53.80 986 959 P_____________ AL051899 16.10 -53.80 HU 70 1 8 285
1899 NA NA 12:00:00 TS 16.20 -54.20 70 hurdat_atl 959 933 O_____________ hurdat_atl AL051899 16.20 -54.20 HU 70 1 8 286
1899 NA NA 15:00:00 TS 16.31 -54.57 933 917 P_____________ AL051899 16.31 -54.57 HU 70 1 7 287
1899 NA NA 18:00:00 TS 16.40 -54.90 70 hurdat_atl 917 902 O_____________ hurdat_atl AL051899 16.40 -54.90 HU 70 1 6 285
1899 NA NA 21:00:00 TS 16.46 -55.16 902 887 P_____________ AL051899 16.46 -55.16 HU 70 1 5 282
1899 NA NA 1899-09-07 00:00:00 TS 16.50 -55.40 70 hurdat_atl 887 865 O_____________ hurdat_atl AL051899 16.50 -55.40 HU 70 1 5 280
1899 NA NA 03:00:00 TS 16.54 -55.68 865 853 P_____________ AL051899 16.54 -55.68 HU 72 1 6 280
1899 NA NA 06:00:00 TS 16.60 -56.00 75 hurdat_atl 853 835 O_____________ hurdat_atl AL051899 16.60 -56.00 HU 75 1 7 283
1899 NA NA 09:00:00 TS 16.69 -56.38 835 819 P_____________ AL051899 16.69 -56.38 HU 77 1 8 285
1899 NA NA 12:00:00 TS 16.80 -56.80 80 hurdat_atl 819 806 O_____________ hurdat_atl AL051899 16.80 -56.80 HU 80 1 9 284
1899 NA NA 15:00:00 TS 16.90 -57.24 806 790 P_____________ AL051899 16.90 -57.24 HU 82 1 9 283
1899 NA NA 18:00:00 TS 17.00 -57.70 85 hurdat_atl 790 780 O_____________ hurdat_atl AL051899 17.00 -57.70 HU 85 2 9 283
1899 NA NA 21:00:00 TS 17.11 -58.15 781 749 P_____________ AL051899 17.11 -58.15 HU 85 2 9 283
1899 NA NA 1899-09-08 00:00:00 TS 17.20 -58.60 85 hurdat_atl 749 708 O_____________ hurdat_atl AL051899 17.20 -58.60 HU 85 2 9 279
1899 NA NA 03:00:00 TS 17.25 -59.04 708 653 P_____________ AL051899 17.25 -59.04 HU 87 2 9 277
1899 NA NA 06:00:00 TS 17.30 -59.50 90 hurdat_atl 653 610 O_____________ hurdat_atl AL051899 17.30 -59.50 HU 90 2 9 278
1899 NA NA 09:00:00 TS 17.37 -59.98 599 545 P_____________ AL051899 17.37 -59.98 HU 92 2 10 282
1899 NA NA 12:00:00 TS 17.50 -60.50 95 hurdat_atl 545 479 O_____________ hurdat_atl AL051899 17.50 -60.50 HU 95 2 11 289
1899 NA CS 15:00:00 TS 17.74 -61.11 479 412 P_____________ AL051899 17.74 -61.11 HU 97 3 12 294
1899 NA CS 18:00:00 TS 18.00 -61.70 100 hurdat_atl 412 369 O_____________ hurdat_atl AL051899 18.00 -61.70 HU 100 3 11 295
1899 NA CS 21:00:00 TS 18.20 -62.17 359 316 P_____________ AL051899 18.20 -62.17 HU 100 3 9 295
1899 NA CS 1899-09-09 00:00:00 TS 18.40 -62.60 100 hurdat_atl 316 264 O_____________ hurdat_atl AL051899 18.40 -62.60 HU 100 3 10 296
1899 NA CS 03:00:00 TS 18.63 -63.10 264 218 P_____________ AL051899 18.63 -63.10 HU 102 3 11 298
1899 NA CS 06:00:00 TS 18.90 -63.60 105 hurdat_atl 218 185 O_____________ hurdat_atl AL051899 18.90 -63.60 HU 105 3 11 303
1899 NA NA 09:00:00 TS 19.20 -64.04 190 168 P_____________ AL051899 19.20 -64.04 HU 105 3 10 305
1899 NA NA 12:00:00 TS 19.50 -64.50 105 hurdat_atl 168 154 O_____________ hurdat_atl AL051899 19.50 -64.50 HU 105 3 11 299
1899 NA NA 15:00:00 TS 19.76 -65.09 165 159 P_____________ AL051899 19.76 -65.09 HU 105 3 12 294
1899 NA NA 18:00:00 TS 20.00 -65.70 105 hurdat_atl 178 178 O_____________ hurdat_atl AL051899 20.00 -65.70 HU 105 3 12 293
1899 NA NA 21:00:00 TS 20.24 -66.27 201 201 P_____________ AL051899 20.24 -66.27 HU 105 3 11 296
1899 NA NA 1899-09-10 00:00:00 TS 20.50 -66.80 105 hurdat_atl 234 234 O_____________ hurdat_atl AL051899 20.50 -66.80 HU 105 3 11 301
1899 NA NA 03:00:00 TS 20.79 -67.26 261 259 P_____________ AL051899 20.79 -67.26 HU 105 3 10 305
1899 NA NA 06:00:00 TS 21.10 -67.70 105 hurdat_atl 261 252 O_____________ hurdat_atl AL051899 21.10 -67.70 HU 105 3 11 304
1899 NA NA 09:00:00 TS 21.39 -68.22 261 256 P_____________ AL051899 21.39 -68.22 HU 105 3 11 303
1899 NA NA 12:00:00 TS 21.70 -68.70 105 hurdat_atl 271 265 O_____________ hurdat_atl AL051899 21.70 -68.70 HU 105 3 11 310
1899 NA NA 15:00:00 TS 22.09 -69.11 294 294 P_____________ AL051899 22.09 -69.11 HU 105 3 10 321
1899 NA NA 18:00:00 TS 22.50 -69.40 105 hurdat_atl 326 326 O_____________ hurdat_atl AL051899 22.50 -69.40 HU 105 3 8 332
1899 NA NA 21:00:00 TS 22.83 -69.54 354 354 P_____________ AL051899 22.83 -69.54 HU 105 3 7 345
1899 NA NA 1899-09-11 00:00:00 TS 23.20 -69.60 105 hurdat_atl 393 393 O_____________ hurdat_atl AL051899 23.20 -69.60 HU 105 3 9 350
1899 NA NA 03:00:00 TS 23.69 -69.70 439 439 P_____________ AL051899 23.69 -69.70 HU 105 3 10 350
1899 NA NA 06:00:00 TS 24.20 -69.80 105 hurdat_atl 469 469 O_____________ hurdat_atl AL051899 24.20 -69.80 HU 105 3 9 347
1899 NA NA 09:00:00 TS 24.61 -69.93 495 495 P_____________ AL051899 24.61 -69.93 HU 105 3 8 347
1899 NA NA 12:00:00 TS 25.00 -70.00 105 hurdat_atl 523 523 O_____________ hurdat_atl AL051899 25.00 -70.00 HU 105 3 8 0
1899 NA NA 15:00:00 TS 25.44 -69.93 566 566 P_____________ AL051899 25.44 -69.93 HU 105 3 9 11
1899 NA NA 18:00:00 TS 25.90 -69.80 105 hurdat_atl 618 618 O_____________ hurdat_atl AL051899 25.90 -69.80 HU 105 3 10 11
1899 NA NA 21:00:00 TS 26.40 -69.73 670 670 P_____________ AL051899 26.40 -69.73 HU 105 3 10 10
1899 NA NA 1899-09-12 00:00:00 TS 26.90 -69.60 105 hurdat_atl 724 724 O_____________ hurdat_atl AL051899 26.90 -69.60 HU 105 3 10 20
1899 NA NA 03:00:00 TS 27.36 -69.34 787 787 P_____________ AL051899 27.36 -69.34 HU 105 3 10 31
1899 NA NA 06:00:00 TS 27.80 -69.00 105 hurdat_atl 840 840 O_____________ hurdat_atl AL051899 27.80 -69.00 HU 105 3 11 34
1899 NA NA 09:00:00 TS 28.23 -68.68 894 894 P_____________ AL051899 28.23 -68.68 HU 105 3 11 34
1899 NA NA 12:00:00 TS 28.70 -68.30 105 hurdat_atl 962 962 O_____________ hurdat_atl AL051899 28.70 -68.30 HU 105 3 12 36
1899 NA NA 15:00:00 TS 29.23 -67.84 1020 1013 P_____________ AL051899 29.23 -67.84 HU 105 3 14 38
1899 NA NA 18:00:00 TS 29.80 -67.30 105 hurdat_atl 1015 1014 O_____________ hurdat_atl AL051899 29.80 -67.30 HU 105 3 15 41
1899 NA NA 21:00:00 TS 30.39 -66.68 1015 1015 P_____________ AL051899 30.39 -66.68 HU 105 3 16 43
1899 NA NA 1899-09-13 00:00:00 TS 31.00 -66.00 105 hurdat_atl 1029 1029 O_____________ hurdat_atl AL051899 31.00 -66.00 HU 105 3 17 44
1899 NA NA 03:00:00 TS 31.59 -65.31 1050 1050 P_____________ AL051899 31.59 -65.31 HU 105 3 17 45
1899 NA NA 06:00:00 TS 32.20 -64.60 105 939 hurdat_atl 1079 1079 O_____________ hurdat_atl AL051899 32.20 -64.60 HU 105 939 3 17 44
1899 NA NA 09:00:00 TS 32.83 -63.89 1113 1090 P_____________ AL051899 32.83 -63.89 HU 105 3 18 42
1899 NA NA 12:00:00 TS 33.50 -63.20 105 hurdat_atl 1090 1059 O_____________ hurdat_atl AL051899 33.50 -63.20 HU 105 3 18 40
1899 NA NA 15:00:00 TS 34.18 -62.55 1060 1000 P_____________ AL051899 34.18 -62.55 HU 102 3 18 38
1899 NA NA 18:00:00 TS 34.90 -61.90 100 hurdat_atl 1000 943 O_____________ hurdat_atl AL051899 34.90 -61.90 HU 100 3 18 36
1899 NA NA 21:00:00 TS 35.65 -61.23 935 885 P_____________ AL051899 35.65 -61.23 HU 97 3 20 35
1899 NA NA 1899-09-14 00:00:00 TS 36.50 -60.50 95 hurdat_atl 878 821 O_____________ hurdat_atl AL051899 36.50 -60.50 HU 95 2 22 34
1899 NA NA 03:00:00 TS 37.47 -59.68 817 771 P_____________ AL051899 37.47 -59.68 HU 92 2 24 34
1899 NA NA 06:00:00 TS 38.50 -58.80 90 hurdat_atl 764 693 O_____________ hurdat_atl AL051899 38.50 -58.80 HU 90 2 24 35
1899 NA NA 09:00:00 TS 39.45 -57.91 685 624 P_____________ AL051899 39.45 -57.91 HU 87 2 24 35
1899 NA NA 12:00:00 TS 40.50 -57.00 85 hurdat_atl 619 553 O_____________ hurdat_atl AL051899 40.50 -57.00 HU 85 2 27 32
1899 NA NA 15:00:00 TS 41.75 -56.03 558 419 P_____________ AL051899 41.75 -56.03 HU 82 1 30 29
1899 NA NA 18:00:00 TS 43.10 -55.10 80 hurdat_atl 406 261 O_____________ hurdat_atl AL051899 43.10 -55.10 HU 80 1 30 26
1899 NA NA 21:00:00 TS 44.41 -54.23 248 99 P_____________ AL051899 44.41 -54.23 HU 77 1 29 23
1899 NA NA 1899-09-15 00:00:00 TS 45.80 -53.50 75 hurdat_atl 88 0 O_____________ hurdat_atl AL051899 45.80 -53.50 HU 75 1 31 18
1899 NA NA 03:00:00 TS 47.32 -52.88 0 0 P_____________ AL051899 47.32 -52.88 HU 67 1 32 12
1899 NA NA 06:00:00 ET 48.90 -52.50 60 hurdat_atl 55 55 O_____________ hurdat_atl AL051899 48.90 -52.50 EX 60 -4 32 6
1899 NA NA 09:00:00 ET 50.46 -52.38 154 154 P_____________ AL051899 50.46 -52.38 EX 55 -4 31 0
1899 NA NA 12:00:00 ET 52.00 -52.50 50 hurdat_atl 212 202 O_____________ hurdat_atl AL051899 52.00 -52.50 EX 50 -4 31 356
1899 NA NA 15:00:00 ET 53.51 -52.72 205 202 P_____________ AL051899 53.51 -52.72 EX 45 -4 30 354
1899 NA NA 18:00:00 ET 55.00 -53.00 40 hurdat_atl 248 O_____________ hurdat_atl AL051899 55.00 -53.00 EX 40 -4 30 354